Terminal Aerodrome Forecast
Issued by NWS

Home | Current Version | Previous Version | Graphics & Text | Print | Product List | Glossary On
Versions: 1 2 3 4 5 6 7 8 9 10 11 12 13 14 15 16 17 18 19 20 21 22 23 24
667
FTUS43 KICT 262313 AAA
TAFSLN
TAF AMD
KSLN 262313Z 2623/2718 07007KT P6SM VCTS SCT060CB BKN300
      TEMPO 2623/2624 VRB26G35KT 3SM TSRAGR BKN040CB
     FM270000 07009KT P6SM VCTS BKN050CB
     FM270300 07007KT P6SM SCT080
     FM271300 12007KT P6SM SCT070
     FM271700 16013KT P6SM SCT090=

USA.gov is the U.S. government's official web portal to all federal, state and local government web resources and services.